Pealertown, Pennsylvania
Current Conditions -  °F | °C
As of 2:35 AM on Thursday 23 Oct 2014 (Local Time) from KHZL Reporting Station
Overcast Overcast  
Wind Chill:   Ceiling: 500
Heat Index:   Visibility: 10mi
Dew Point:   Wind: 14mph
Humidity: 93%   Direction: 320°NW
Pressure: 29.89"   Gusts: 26mph
Location:  41.1114°N, 76.3684°W
Report Text: KHZL 230635Z AUTO 32012G23KT 10SM OVC005 07/06 A2989 RMK AO2
Loading
Personal Weather Stations






























Interactive Weather Map
Tropical Storm Tracking
New forecast layout! Learn more

10-Day Weather Forecast

Advertisements
Track Severe Weather on mobile